sensor_id;sensor_type;location;lat;lon;timestamp;pressure;altitude;pressure_sealevel;temperature;humidity
51528;BME280;37612;51.768;21.590;2022-12-18T00:02:28;101308.56;;;-6.82;100.00
51528;BME280;37612;51.768;21.590;2022-12-18T00:06:35;101311.76;;;-6.81;100.00
51528;BME280;37612;51.768;21.590;2022-12-18T00:10:39;101315.66;;;-6.82;100.00
51528;BME280;37612;51.768;21.590;2022-12-18T00:14:45;101320.79;;;-6.82;100.00
51528;BME280;37612;51.768;21.590;2022-12-18T00:18:57;101325.48;;;-6.82;100.00
51528;BME280;37612;51.768;21.590;2022-12-18T00:23:08;101327.54;;;-6.79;100.00
51528;BME280;37612;51.768;21.590;2022-12-18T00:27:26;101330.97;;;-6.76;100.00
51528;BME280;37612;51.768;21.590;2022-12-18T00:31:36;101338.40;;;-6.76;100.00
51528;BME280;37612;51.768;21.590;2022-12-18T00:35:39;101339.86;;;-6.74;100.00
51528;BME280;37612;51.768;21.590;2022-12-18T00:39:52;101354.50;;;-6.71;100.00
51528;BME280;37612;51.768;21.590;2022-12-18T00:44:07;101360.77;;;-6.74;100.00
51528;BME280;37612;51.768;21.590;2022-12-18T00:48:11;101361.89;;;-6.77;100.00
51528;BME280;37612;51.768;21.590;2022-12-18T00:52:16;101359.26;;;-6.77;100.00
51528;BME280;37612;51.768;21.590;2022-12-18T00:56:40;101370.50;;;-6.77;100.00
51528;BME280;37612;51.768;21.590;2022-12-18T01:00:45;101372.81;;;-6.78;100.00
51528;BME280;37612;51.768;21.590;2022-12-18T01:05:00;101375.23;;;-6.75;100.00
51528;BME280;37612;51.768;21.590;2022-12-18T01:09:02;101378.17;;;-6.70;100.00
51528;BME280;37612;51.768;21.590;2022-12-18T01:13:03;101378.41;;;-6.69;100.00
51528;BME280;37612;51.768;21.590;2022-12-18T01:17:06;101383.92;;;-6.68;100.00
51528;BME280;37612;51.768;21.590;2022-12-18T01:21:10;101389.66;;;-6.64;100.00
51528;BME280;37612;51.768;21.590;2022-12-18T01:25:12;101396.75;;;-6.61;100.00
51528;BME280;37612;51.768;21.590;2022-12-18T01:29:13;101409.87;;;-6.63;100.00
51528;BME280;37612;51.768;21.590;2022-12-18T01:33:16;101409.99;;;-6.60;100.00
51528;BME280;37612;51.768;21.590;2022-12-18T01:37:17;101414.75;;;-6.58;100.00
51528;BME280;37612;51.768;21.590;2022-12-18T01:41:27;101418.84;;;-6.57;100.00
51528;BME280;37612;51.768;21.590;2022-12-18T01:45:51;101422.00;;;-6.55;100.00
51528;BME280;37612;51.768;21.590;2022-12-18T01:49:54;101417.31;;;-6.50;100.00
51528;BME280;37612;51.768;21.590;2022-12-18T01:53:56;101425.95;;;-6.50;100.00
51528;BME280;37612;51.768;21.590;2022-12-18T01:58:01;101433.48;;;-6.51;100.00
51528;BME280;37612;51.768;21.590;2022-12-18T02:02:07;101443.44;;;-6.50;100.00
51528;BME280;37612;51.768;21.590;2022-12-18T02:06:16;101444.17;;;-6.50;100.00
51528;BME280;37612;51.768;21.590;2022-12-18T02:10:31;101444.16;;;-6.50;100.00
51528;BME280;37612;51.768;21.590;2022-12-18T02:14:50;101451.15;;;-6.46;100.00
51528;BME280;37612;51.768;21.590;2022-12-18T02:18:58;101453.15;;;-6.43;100.00
51528;BME280;37612;51.768;21.590;2022-12-18T02:27:13;101458.80;;;-6.47;100.00
51528;BME280;37612;51.768;21.590;2022-12-18T02:31:19;101469.52;;;-6.44;100.00
51528;BME280;37612;51.768;21.590;2022-12-18T02:35:25;101479.27;;;-6.42;100.00
51528;BME280;37612;51.768;21.590;2022-12-18T02:39:29;101478.96;;;-6.42;100.00
51528;BME280;37612;51.768;21.590;2022-12-18T02:44:07;101479.48;;;-6.40;100.00
51528;BME280;37612;51.768;21.590;2022-12-18T02:48:09;101481.06;;;-6.40;100.00
51528;BME280;37612;51.768;21.590;2022-12-18T02:52:45;101483.80;;;-6.40;100.00
51528;BME280;37612;51.768;21.590;2022-12-18T02:56:54;101490.10;;;-6.38;100.00
51528;BME280;37612;51.768;21.590;2022-12-18T03:05:33;101507.05;;;-6.35;100.00
51528;BME280;37612;51.768;21.590;2022-12-18T03:09:41;101508.09;;;-6.35;100.00
51528;BME280;37612;51.768;21.590;2022-12-18T03:13:54;101516.56;;;-6.30;100.00
51528;BME280;37612;51.768;21.590;2022-12-18T03:18:07;101522.95;;;-6.27;100.00
51528;BME280;37612;51.768;21.590;2022-12-18T03:22:15;101533.12;;;-6.26;100.00
51528;BME280;37612;51.768;21.590;2022-12-18T03:26:25;101537.17;;;-6.22;100.00
51528;BME280;37612;51.768;21.590;2022-12-18T03:30:33;101541.60;;;-6.18;100.00
51528;BME280;37612;51.768;21.590;2022-12-18T03:34:37;101545.92;;;-6.18;100.00
51528;BME280;37612;51.768;21.590;2022-12-18T03:38:39;101546.34;;;-6.19;100.00
51528;BME280;37612;51.768;21.590;2022-12-18T03:45:01;101557.27;;;-6.14;100.00
51528;BME280;37612;51.768;21.590;2022-12-18T03:48:48;101556.17;;;-6.11;100.00
51528;BME280;37612;51.768;21.590;2022-12-18T03:57:41;101570.05;;;-6.11;100.00
51528;BME280;37612;51.768;21.590;2022-12-18T04:01:49;101574.23;;;-6.06;100.00
51528;BME280;37612;51.768;21.590;2022-12-18T04:05:54;101580.34;;;-6.07;100.00
51528;BME280;37612;51.768;21.590;2022-12-18T04:09:58;101577.91;;;-6.09;100.00
51528;BME280;37612;51.768;21.590;2022-12-18T04:14:03;101575.70;;;-6.07;100.00
51528;BME280;37612;51.768;21.590;2022-12-18T04:18:09;101577.79;;;-6.05;100.00
51528;BME280;37612;51.768;21.590;2022-12-18T04:22:14;101584.27;;;-6.06;100.00
51528;BME280;37612;51.768;21.590;2022-12-18T04:26:18;101582.23;;;-6.07;100.00
51528;BME280;37612;51.768;21.590;2022-12-18T04:30:25;101590.03;;;-6.02;100.00
51528;BME280;37612;51.768;21.590;2022-12-18T04:34:27;101592.98;;;-5.99;100.00
51528;BME280;37612;51.768;21.590;2022-12-18T04:38:32;101598.02;;;-6.02;100.00
51528;BME280;37612;51.768;21.590;2022-12-18T04:42:39;101601.90;;;-6.00;100.00
51528;BME280;37612;51.768;21.590;2022-12-18T04:46:43;101609.27;;;-5.99;100.00
51528;BME280;37612;51.768;21.590;2022-12-18T04:50:46;101617.55;;;-5.98;100.00
51528;BME280;37612;51.768;21.590;2022-12-18T04:54:54;101627.73;;;-5.98;100.00
51528;BME280;37612;51.768;21.590;2022-12-18T04:58:57;101629.59;;;-5.94;100.00
51528;BME280;37612;51.768;21.590;2022-12-18T05:03:04;101635.80;;;-5.94;100.00
51528;BME280;37612;51.768;21.590;2022-12-18T05:07:18;101645.60;;;-5.98;100.00
51528;BME280;37612;51.768;21.590;2022-12-18T05:11:21;101651.64;;;-5.98;100.00
51528;BME280;37612;51.768;21.590;2022-12-18T05:15:22;101656.01;;;-5.96;100.00
51528;BME280;37612;51.768;21.590;2022-12-18T05:19:24;101660.83;;;-5.98;100.00
51528;BME280;37612;51.768;21.590;2022-12-18T05:23:26;101662.41;;;-5.98;100.00
51528;BME280;37612;51.768;21.590;2022-12-18T05:27:29;101673.74;;;-5.94;100.00
51528;BME280;37612;51.768;21.590;2022-12-18T05:31:33;101681.30;;;-5.90;100.00
51528;BME280;37612;51.768;21.590;2022-12-18T05:35:35;101693.45;;;-5.93;100.00
51528;BME280;37612;51.768;21.590;2022-12-18T05:39:39;101698.30;;;-5.91;100.00
51528;BME280;37612;51.768;21.590;2022-12-18T05:43:44;101702.69;;;-5.86;100.00
51528;BME280;37612;51.768;21.590;2022-12-18T05:47:49;101708.55;;;-5.85;99.99
51528;BME280;37612;51.768;21.590;2022-12-18T05:51:55;101708.01;;;-5.88;100.00
51528;BME280;37612;51.768;21.590;2022-12-18T05:56:01;101716.17;;;-5.85;100.00
51528;BME280;37612;51.768;21.590;2022-12-18T06:00:04;101724.23;;;-5.81;100.00
51528;BME280;37612;51.768;21.590;2022-12-18T06:04:07;101727.92;;;-5.85;99.99
51528;BME280;37612;51.768;21.590;2022-12-18T06:08:09;101731.27;;;-5.88;99.76
51528;BME280;37612;51.768;21.590;2022-12-18T06:12:16;101737.48;;;-5.87;99.76
51528;BME280;37612;51.768;21.590;2022-12-18T06:16:18;101744.41;;;-5.88;99.71
51528;BME280;37612;51.768;21.590;2022-12-18T06:20:20;101748.73;;;-5.90;99.85
51528;BME280;37612;51.768;21.590;2022-12-18T06:24:22;101756.09;;;-5.88;99.68
51528;BME280;37612;51.768;21.590;2022-12-18T06:28:24;101766.45;;;-5.88;99.16
51528;BME280;37612;51.768;21.590;2022-12-18T06:32:32;101776.28;;;-5.93;99.28
51528;BME280;37612;51.768;21.590;2022-12-18T06:36:34;101781.17;;;-5.96;99.27
51528;BME280;37612;51.768;21.590;2022-12-18T06:40:37;101788.52;;;-5.91;99.40
51528;BME280;37612;51.768;21.590;2022-12-18T06:44:40;101799.36;;;-5.90;99.23
51528;BME280;37612;51.768;21.590;2022-12-18T06:48:49;101801.64;;;-5.93;99.35
51528;BME280;37612;51.768;21.590;2022-12-18T06:52:51;101813.06;;;-5.93;99.00
51528;BME280;37612;51.768;21.590;2022-12-18T06:56:53;101815.33;;;-5.98;98.83
51528;BME280;37612;51.768;21.590;2022-12-18T07:01:03;101821.88;;;-6.00;99.19
51528;BME280;37612;51.768;21.590;2022-12-18T07:05:06;101830.29;;;-5.96;98.95
51528;BME280;37612;51.768;21.590;2022-12-18T07:09:09;101834.88;;;-5.98;98.78
51528;BME280;37612;51.768;21.590;2022-12-18T07:13:14;101839.52;;;-6.00;98.64
51528;BME280;37612;51.768;21.590;2022-12-18T07:17:40;101843.39;;;-5.98;98.83
51528;BME280;37612;51.768;21.590;2022-12-18T07:21:45;101854.77;;;-5.97;98.50
51528;BME280;37612;51.768;21.590;2022-12-18T07:25:47;101862.31;;;-5.98;98.44
51528;BME280;37612;51.768;21.590;2022-12-18T07:29:48;101870.77;;;-5.98;98.41
51528;BME280;37612;51.768;21.590;2022-12-18T07:33:54;101879.09;;;-6.03;98.29
51528;BME280;37612;51.768;21.590;2022-12-18T07:37:58;101885.08;;;-6.10;98.11
51528;BME280;37612;51.768;21.590;2022-12-18T07:42:00;101892.02;;;-6.10;98.07
51528;BME280;37612;51.768;21.590;2022-12-18T07:46:24;101900.99;;;-6.07;98.34
51528;BME280;37612;51.768;21.590;2022-12-18T07:50:29;101898.13;;;-6.11;97.71
51528;BME280;37612;51.768;21.590;2022-12-18T07:54:33;101902.21;;;-6.13;97.59
51528;BME280;37612;51.768;21.590;2022-12-18T07:58:38;101907.68;;;-6.11;97.72
51528;BME280;37612;51.768;21.590;2022-12-18T08:02:40;101918.45;;;-6.12;97.29
51528;BME280;37612;51.768;21.590;2022-12-18T08:06:42;101921.98;;;-6.16;97.02
51528;BME280;37612;51.768;21.590;2022-12-18T08:10:47;101931.48;;;-6.15;97.02
51528;BME280;37612;51.768;21.590;2022-12-18T08:14:52;101943.36;;;-6.20;96.64
51528;BME280;37612;51.768;21.590;2022-12-18T08:18:57;101948.38;;;-6.17;96.77
51528;BME280;37612;51.768;21.590;2022-12-18T08:23:04;101947.63;;;-6.07;96.80
51528;BME280;37612;51.768;21.590;2022-12-18T08:27:06;101951.53;;;-6.03;96.59
51528;BME280;37612;51.768;21.590;2022-12-18T08:31:11;101956.96;;;-6.04;96.63
51528;BME280;37612;51.768;21.590;2022-12-18T08:35:18;101966.40;;;-6.03;96.36
51528;BME280;37612;51.768;21.590;2022-12-18T08:39:20;101969.02;;;-6.00;96.37
51528;BME280;37612;51.768;21.590;2022-12-18T08:43:22;101974.80;;;-5.93;96.42
51528;BME280;37612;51.768;21.590;2022-12-18T08:47:42;101984.88;;;-5.87;96.16
51528;BME280;37612;51.768;21.590;2022-12-18T08:51:46;101988.70;;;-5.88;96.12
51528;BME280;37612;51.768;21.590;2022-12-18T08:55:48;101989.84;;;-5.81;95.89
51528;BME280;37612;51.768;21.590;2022-12-18T08:59:53;101995.23;;;-5.79;95.91
51528;BME280;37612;51.768;21.590;2022-12-18T09:03:58;102001.08;;;-5.81;95.95
51528;BME280;37612;51.768;21.590;2022-12-18T09:08:26;102001.02;;;-5.71;96.13
51528;BME280;37612;51.768;21.590;2022-12-18T09:12:40;102008.64;;;-5.57;95.90
51528;BME280;37612;51.768;21.590;2022-12-18T09:16:47;102012.70;;;-5.53;95.59
51528;BME280;37612;51.768;21.590;2022-12-18T09:20:55;102014.61;;;-5.64;95.32
51528;BME280;37612;51.768;21.590;2022-12-18T09:25:14;102017.32;;;-5.74;95.32
51528;BME280;37612;51.768;21.590;2022-12-18T09:29:26;102021.48;;;-5.71;95.55
51528;BME280;37612;51.768;21.590;2022-12-18T09:33:34;102029.10;;;-5.60;95.78
51528;BME280;37612;51.768;21.590;2022-12-18T09:37:46;102032.81;;;-5.50;95.71
51528;BME280;37612;51.768;21.590;2022-12-18T09:46:50;102033.84;;;-5.49;95.40
51528;BME280;37612;51.768;21.590;2022-12-18T09:51:00;102033.00;;;-5.53;95.11
51528;BME280;37612;51.768;21.590;2022-12-18T09:59:36;102036.04;;;-5.34;95.59
51528;BME280;37612;51.768;21.590;2022-12-18T10:03:42;102043.76;;;-5.27;95.41
51528;BME280;37612;51.768;21.590;2022-12-18T10:08:17;102052.76;;;-5.22;95.35
51528;BME280;37612;51.768;21.590;2022-12-18T10:13:04;102057.99;;;-5.17;94.93
51528;BME280;37612;51.768;21.590;2022-12-18T10:17:58;102048.11;;;-5.25;94.88
51528;BME280;37612;51.768;21.590;2022-12-18T10:26:31;102050.15;;;-5.16;95.00
51528;BME280;37612;51.768;21.590;2022-12-18T10:30:43;102051.46;;;-5.15;94.93
51528;BME280;37612;51.768;21.590;2022-12-18T10:34:51;102060.20;;;-5.16;94.94
51528;BME280;37612;51.768;21.590;2022-12-18T10:39:18;102064.15;;;-5.18;94.53
51528;BME280;37612;51.768;21.590;2022-12-18T10:43:39;102068.10;;;-5.04;95.18
51528;BME280;37612;51.768;21.590;2022-12-18T10:47:49;102071.11;;;-4.94;94.77
51528;BME280;37612;51.768;21.590;2022-12-18T10:52:17;102078.33;;;-4.95;94.50
51528;BME280;37612;51.768;21.590;2022-12-18T11:01:17;102072.73;;;-4.95;94.39
51528;BME280;37612;51.768;21.590;2022-12-18T11:05:33;102066.88;;;-4.87;94.71
51528;BME280;37612;51.768;21.590;2022-12-18T11:09:41;102060.70;;;-4.78;94.67
51528;BME280;37612;51.768;21.590;2022-12-18T11:18:28;102074.36;;;-4.66;94.66
51528;BME280;37612;51.768;21.590;2022-12-18T11:22:55;102079.98;;;-4.59;94.40
51528;BME280;37612;51.768;21.590;2022-12-18T11:27:00;102085.19;;;-4.59;94.28
51528;BME280;37612;51.768;21.590;2022-12-18T11:31:22;102086.52;;;-4.53;94.62
51528;BME280;37612;51.768;21.590;2022-12-18T11:35:47;102078.58;;;-4.51;94.01
51528;BME280;37612;51.768;21.590;2022-12-18T11:40:09;102078.62;;;-4.44;94.36
51528;BME280;37612;51.768;21.590;2022-12-18T11:44:29;102087.87;;;-4.37;94.41
51528;BME280;37612;51.768;21.590;2022-12-18T11:48:55;102086.71;;;-4.40;94.11
51528;BME280;37612;51.768;21.590;2022-12-18T11:53:18;102086.10;;;-4.34;94.04
51528;BME280;37612;51.768;21.590;2022-12-18T11:57:59;102088.33;;;-4.38;93.67
51528;BME280;37612;51.768;21.590;2022-12-18T12:16:51;102108.54;;;-4.63;93.50
51528;BME280;37612;51.768;21.590;2022-12-18T12:26:19;102118.27;;;-4.68;93.86
51528;BME280;37612;51.768;21.590;2022-12-18T12:30:58;102133.14;;;-4.62;93.99
51528;BME280;37612;51.768;21.590;2022-12-18T12:39:52;102147.71;;;-4.72;93.58
51528;BME280;37612;51.768;21.590;2022-12-18T12:44:03;102147.27;;;-4.82;93.46
51528;BME280;37612;51.768;21.590;2022-12-18T12:48:40;102149.44;;;-4.83;93.42
51528;BME280;37612;51.768;21.590;2022-12-18T12:52:53;102154.06;;;-4.85;93.14
51528;BME280;37612;51.768;21.590;2022-12-18T12:57:09;102158.95;;;-4.94;93.34
51528;BME280;37612;51.768;21.590;2022-12-18T13:01:41;102151.54;;;-4.91;93.78
51528;BME280;37612;51.768;21.590;2022-12-18T13:06:00;102151.80;;;-4.85;93.93
51528;BME280;37612;51.768;21.590;2022-12-18T13:10:12;102165.14;;;-4.79;93.54
51528;BME280;37612;51.768;21.590;2022-12-18T13:14:30;102177.92;;;-4.83;93.38
51528;BME280;37612;51.768;21.590;2022-12-18T13:18:38;102179.19;;;-4.87;93.59
51528;BME280;37612;51.768;21.590;2022-12-18T13:22:54;102183.75;;;-4.90;93.75
51528;BME280;37612;51.768;21.590;2022-12-18T13:28:08;102185.73;;;-4.94;93.58
51528;BME280;37612;51.768;21.590;2022-12-18T13:36:45;102192.77;;;-4.95;93.57
51528;BME280;37612;51.768;21.590;2022-12-18T13:41:27;102194.58;;;-4.99;93.69
51528;BME280;37612;51.768;21.590;2022-12-18T13:45:44;102199.55;;;-5.10;93.44
51528;BME280;37612;51.768;21.590;2022-12-18T13:49:51;102208.95;;;-5.13;93.58
51528;BME280;37612;51.768;21.590;2022-12-18T13:54:18;102220.32;;;-5.14;93.55
51528;BME280;37612;51.768;21.590;2022-12-18T13:58:25;102222.90;;;-5.17;93.68
51528;BME280;37612;51.768;21.590;2022-12-18T14:02:31;102229.80;;;-5.22;93.70
51528;BME280;37612;51.768;21.590;2022-12-18T14:07:25;102227.58;;;-5.25;93.72
51528;BME280;37612;51.768;21.590;2022-12-18T14:11:31;102220.26;;;-5.28;94.07
51528;BME280;37612;51.768;21.590;2022-12-18T14:15:44;102225.44;;;-5.33;93.94
51528;BME280;37612;51.768;21.590;2022-12-18T14:19:51;102226.67;;;-5.36;93.83
51528;BME280;37612;51.768;21.590;2022-12-18T14:24:22;102230.73;;;-5.34;94.01
51528;BME280;37612;51.768;21.590;2022-12-18T14:29:19;102230.13;;;-5.39;93.73
51528;BME280;37612;51.768;21.590;2022-12-18T14:33:29;102235.75;;;-5.49;93.72
51528;BME280;37612;51.768;21.590;2022-12-18T14:37:40;102252.25;;;-5.58;93.81
51528;BME280;37612;51.768;21.590;2022-12-18T14:41:45;102257.96;;;-5.67;94.01
51528;BME280;37612;51.768;21.590;2022-12-18T14:45:53;102262.97;;;-5.75;93.97
51528;BME280;37612;51.768;21.590;2022-12-18T14:50:11;102266.66;;;-5.76;93.79
51528;BME280;37612;51.768;21.590;2022-12-18T14:54:27;102259.02;;;-5.79;93.82
51528;BME280;37612;51.768;21.590;2022-12-18T14:59:32;102262.31;;;-5.82;94.14
51528;BME280;37612;51.768;21.590;2022-12-18T15:09:25;102270.49;;;-5.88;94.38
51528;BME280;37612;51.768;21.590;2022-12-18T15:13:54;102279.06;;;-5.95;94.31
51528;BME280;37612;51.768;21.590;2022-12-18T15:18:16;102284.79;;;-5.89;94.64
51528;BME280;37612;51.768;21.590;2022-12-18T15:22:26;102279.87;;;-5.82;94.26
51528;BME280;37612;51.768;21.590;2022-12-18T15:26:36;102279.79;;;-5.84;94.22
51528;BME280;37612;51.768;21.590;2022-12-18T15:35:24;102289.10;;;-5.86;94.47
51528;BME280;37612;51.768;21.590;2022-12-18T15:39:30;102287.93;;;-5.87;94.62
51528;BME280;37612;51.768;21.590;2022-12-18T15:43:53;102285.71;;;-5.87;94.36
51528;BME280;37612;51.768;21.590;2022-12-18T15:48:21;102292.52;;;-5.85;94.50
51528;BME280;37612;51.768;21.590;2022-12-18T15:52:39;102298.01;;;-5.87;94.30
51528;BME280;37612;51.768;21.590;2022-12-18T15:56:44;102296.59;;;-5.87;94.56
51528;BME280;37612;51.768;21.590;2022-12-18T16:01:09;102297.20;;;-5.85;94.70
51528;BME280;37612;51.768;21.590;2022-12-18T16:05:16;102305.31;;;-5.88;94.53
51528;BME280;37612;51.768;21.590;2022-12-18T16:09:53;102316.62;;;-5.85;94.49
51528;BME280;37612;51.768;21.590;2022-12-18T16:14:04;102312.42;;;-5.84;94.42
51528;BME280;37612;51.768;21.590;2022-12-18T16:18:12;102316.28;;;-5.82;94.42
51528;BME280;37612;51.768;21.590;2022-12-18T16:22:32;102323.52;;;-5.82;94.58
51528;BME280;37612;51.768;21.590;2022-12-18T16:26:45;102340.13;;;-5.81;95.00
51528;BME280;37612;51.768;21.590;2022-12-18T16:31:19;102341.48;;;-5.84;94.57
51528;BME280;37612;51.768;21.590;2022-12-18T16:36:04;102349.56;;;-5.91;94.36
51528;BME280;37612;51.768;21.590;2022-12-18T16:40:32;102348.18;;;-5.94;94.14
51528;BME280;37612;51.768;21.590;2022-12-18T16:45:06;102342.33;;;-5.98;94.11
51528;BME280;37612;51.768;21.590;2022-12-18T16:49:18;102334.73;;;-6.05;94.22
51528;BME280;37612;51.768;21.590;2022-12-18T16:58:05;102336.84;;;-6.15;94.10
51528;BME280;37612;51.768;21.590;2022-12-18T17:02:33;102335.27;;;-6.14;94.42
51528;BME280;37612;51.768;21.590;2022-12-18T17:07:41;102324.79;;;-6.16;94.41
51528;BME280;37612;51.768;21.590;2022-12-18T17:12:10;102322.05;;;-6.20;94.60
51528;BME280;37612;51.768;21.590;2022-12-18T17:17:02;102324.37;;;-6.24;94.56
51528;BME280;37612;51.768;21.590;2022-12-18T17:21:48;102333.85;;;-6.20;94.45
51528;BME280;37612;51.768;21.590;2022-12-18T17:26:20;102336.47;;;-6.24;94.23
51528;BME280;37612;51.768;21.590;2022-12-18T17:30:26;102343.48;;;-6.29;94.51
51528;BME280;37612;51.768;21.590;2022-12-18T17:34:34;102350.48;;;-6.33;94.43
51528;BME280;37612;51.768;21.590;2022-12-18T17:38:40;102360.35;;;-6.36;94.55
51528;BME280;37612;51.768;21.590;2022-12-18T17:42:45;102357.94;;;-6.36;94.43
51528;BME280;37612;51.768;21.590;2022-12-18T17:46:55;102358.38;;;-6.38;94.37
51528;BME280;37612;51.768;21.590;2022-12-18T17:51:05;102367.63;;;-6.43;94.53
51528;BME280;37612;51.768;21.590;2022-12-18T17:55:12;102360.97;;;-6.48;94.61
51528;BME280;37612;51.768;21.590;2022-12-18T17:59:19;102356.93;;;-6.50;94.87
51528;BME280;37612;51.768;21.590;2022-12-18T18:03:24;102363.33;;;-6.46;94.54
51528;BME280;37612;51.768;21.590;2022-12-18T18:07:39;102364.27;;;-6.48;94.48
51528;BME280;37612;51.768;21.590;2022-12-18T18:12:10;102371.59;;;-6.52;94.48
51528;BME280;37612;51.768;21.590;2022-12-18T18:16:41;102373.34;;;-6.52;94.95
51528;BME280;37612;51.768;21.590;2022-12-18T18:20:50;102374.27;;;-6.50;94.30
51528;BME280;37612;51.768;21.590;2022-12-18T18:24:57;102384.36;;;-6.54;94.63
51528;BME280;37612;51.768;21.590;2022-12-18T18:29:03;102392.83;;;-6.57;94.76
51528;BME280;37612;51.768;21.590;2022-12-18T18:33:10;102398.83;;;-6.59;94.84
51528;BME280;37612;51.768;21.590;2022-12-18T18:37:16;102403.03;;;-6.60;94.68
51528;BME280;37612;51.768;21.590;2022-12-18T18:41:21;102397.36;;;-6.61;94.57
51528;BME280;37612;51.768;21.590;2022-12-18T18:45:30;102393.24;;;-6.62;94.82
51528;BME280;37612;51.768;21.590;2022-12-18T18:49:35;102386.52;;;-6.66;94.87
51528;BME280;37612;51.768;21.590;2022-12-18T18:53:42;102388.40;;;-6.65;94.67
51528;BME280;37612;51.768;21.590;2022-12-18T18:57:47;102391.92;;;-6.60;94.85
51528;BME280;37612;51.768;21.590;2022-12-18T19:01:54;102394.52;;;-6.60;94.97
51528;BME280;37612;51.768;21.590;2022-12-18T19:05:59;102399.00;;;-6.66;94.66
51528;BME280;37612;51.768;21.590;2022-12-18T19:10:08;102394.02;;;-6.70;94.85
51528;BME280;37612;51.768;21.590;2022-12-18T19:14:15;102394.28;;;-6.68;94.99
51528;BME280;37612;51.768;21.590;2022-12-18T19:18:21;102393.25;;;-6.69;94.97
51528;BME280;37612;51.768;21.590;2022-12-18T19:22:32;102402.41;;;-6.72;94.93
51528;BME280;37612;51.768;21.590;2022-12-18T19:26:38;102414.77;;;-6.76;95.01
51528;BME280;37612;51.768;21.590;2022-12-18T19:30:47;102417.00;;;-6.76;95.00
51528;BME280;37612;51.768;21.590;2022-12-18T19:34:56;102407.98;;;-6.76;94.89
51528;BME280;37612;51.768;21.590;2022-12-18T19:39:10;102404.23;;;-6.77;95.07
51528;BME280;37612;51.768;21.590;2022-12-18T19:43:17;102410.78;;;-6.83;95.10
51528;BME280;37612;51.768;21.590;2022-12-18T19:47:23;102420.06;;;-6.85;94.92
51528;BME280;37612;51.768;21.590;2022-12-18T19:51:30;102424.08;;;-6.89;94.82
51528;BME280;37612;51.768;21.590;2022-12-18T19:55:42;102422.73;;;-7.00;94.89
51528;BME280;37612;51.768;21.590;2022-12-18T19:59:55;102422.05;;;-7.04;95.20
51528;BME280;37612;51.768;21.590;2022-12-18T20:04:06;102418.56;;;-7.03;95.03
51528;BME280;37612;51.768;21.590;2022-12-18T20:08:16;102423.17;;;-7.09;95.05
51528;BME280;37612;51.768;21.590;2022-12-18T20:12:33;102431.39;;;-7.18;95.11
51528;BME280;37612;51.768;21.590;2022-12-18T20:16:42;102447.71;;;-7.22;95.27
51528;BME280;37612;51.768;21.590;2022-12-18T20:20:52;102452.88;;;-7.22;94.96
51528;BME280;37612;51.768;21.590;2022-12-18T20:24:58;102455.52;;;-7.23;95.34
51528;BME280;37612;51.768;21.590;2022-12-18T20:29:04;102450.60;;;-7.29;95.36
51528;BME280;37612;51.768;21.590;2022-12-18T20:33:15;102439.36;;;-7.29;95.38
51528;BME280;37612;51.768;21.590;2022-12-18T20:37:25;102435.17;;;-7.24;95.57
51528;BME280;37612;51.768;21.590;2022-12-18T20:41:32;102437.64;;;-7.25;95.51
51528;BME280;37612;51.768;21.590;2022-12-18T20:45:37;102420.04;;;-7.30;95.40
51528;BME280;37612;51.768;21.590;2022-12-18T20:49:49;102413.55;;;-7.35;95.48
51528;BME280;37612;51.768;21.590;2022-12-18T20:53:56;102412.38;;;-7.40;95.31
51528;BME280;37612;51.768;21.590;2022-12-18T20:58:06;102411.06;;;-7.48;95.52
51528;BME280;37612;51.768;21.590;2022-12-18T21:02:13;102411.36;;;-7.55;95.39
51528;BME280;37612;51.768;21.590;2022-12-18T21:06:20;102405.45;;;-7.54;95.42
51528;BME280;37612;51.768;21.590;2022-12-18T21:10:30;102392.95;;;-7.52;95.57
51528;BME280;37612;51.768;21.590;2022-12-18T21:14:39;102393.54;;;-7.65;96.21
51528;BME280;37612;51.768;21.590;2022-12-18T21:18:44;102401.30;;;-7.75;96.10
51528;BME280;37612;51.768;21.590;2022-12-18T21:22:49;102406.92;;;-7.77;96.13
51528;BME280;37612;51.768;21.590;2022-12-18T21:26:54;102417.13;;;-7.78;96.50
51528;BME280;37612;51.768;21.590;2022-12-18T21:30:59;102419.94;;;-7.82;96.88
51528;BME280;37612;51.768;21.590;2022-12-18T21:35:05;102415.95;;;-7.86;96.70
51528;BME280;37612;51.768;21.590;2022-12-18T21:39:10;102420.16;;;-7.87;96.73
51528;BME280;37612;51.768;21.590;2022-12-18T21:43:15;102423.05;;;-7.93;96.94
51528;BME280;37612;51.768;21.590;2022-12-18T21:47:39;102433.30;;;-7.94;96.81
51528;BME280;37612;51.768;21.590;2022-12-18T21:51:44;102431.06;;;-7.94;96.78
51528;BME280;37612;51.768;21.590;2022-12-18T21:55:56;102428.73;;;-7.97;97.16
51528;BME280;37612;51.768;21.590;2022-12-18T22:00:02;102427.73;;;-7.97;97.21
51528;BME280;37612;51.768;21.590;2022-12-18T22:04:08;102423.16;;;-7.96;96.99
51528;BME280;37612;51.768;21.590;2022-12-18T22:08:14;102426.17;;;-7.93;97.06
51528;BME280;37612;51.768;21.590;2022-12-18T22:12:19;102422.20;;;-7.94;97.38
51528;BME280;37612;51.768;21.590;2022-12-18T22:16:38;102408.64;;;-7.89;97.45
51528;BME280;37612;51.768;21.590;2022-12-18T22:20:44;102397.64;;;-7.86;97.22
51528;BME280;37612;51.768;21.590;2022-12-18T22:24:55;102395.41;;;-7.90;97.76
51528;BME280;37612;51.768;21.590;2022-12-18T22:29:20;102383.88;;;-7.88;97.34
51528;BME280;37612;51.768;21.590;2022-12-18T22:33:47;102366.10;;;-7.88;97.39
51528;BME280;37612;51.768;21.590;2022-12-18T22:38:20;102357.72;;;-7.90;97.52
51528;BME280;37612;51.768;21.590;2022-12-18T22:42:26;102350.05;;;-7.88;97.59
51528;BME280;37612;51.768;21.590;2022-12-18T22:46:34;102348.65;;;-7.84;97.43
51528;BME280;37612;51.768;21.590;2022-12-18T22:55:26;102341.10;;;-7.86;97.47
51528;BME280;37612;51.768;21.590;2022-12-18T22:59:31;102338.19;;;-7.83;97.57
51528;BME280;37612;51.768;21.590;2022-12-18T23:03:34;102341.25;;;-7.81;97.39